PWSweather.com
Personal Weather Stations
Station Observations
BLACKWELL
Blackwell, AlfretonGB DE55

BlackwellAlfretonGB DE55

Lat: 53.12076, Lon: -1.354978

Elevation: 410

Station Type: Vantage Pro

High Low Average
Temperature 44.6°F7.0°C 37.0°F2.8°C 41.1°F5.1°C
Dew Point 42.6°F5.9°C 35.2°F1.8°C 38.5°F3.6°C
Winds 5.0 mph 8.0 kmh Calm Calm 2.0 mph SW3.2 kmh SW
Wind Gusts 13.0 mph20.9 kmh 3.0 mph4.8 kmh 7.0 mph11.3 kmh
Humidity 97% 80% 90%
Pressure 29.67 in1004.7 mb 29.32 in992.9 mb -
Precipitation 0.35 in8.9 mm - -
Hour Temp Dew Point Humidity Winds Wind Gusts Pressure Precip Precip Rate Daily Precip Total
12:28 AM 41.7°F5.4°C 40.6°F4.8°C 96% 1.0 mph NE1.6 kmh NE 3.0 mph4.8 kmh 29.54 in1000.3 mb 0.05 in1.3 mm 0.11 in2.8 mm 0.02 in0.5 mm
01:28 AM 42.4°F5.8°C 41.7°F5.4°C 97% 1.0 mph E1.6 kmh E 5.0 mph8.0 kmh 29.45 in997.3 mb 0.01 in0.3 mm 0.00 in0.0 mm 0.03 in0.8 mm
02:28 AM 43.5°F6.4°C 42.6°F5.9°C 97% 1.0 mph SW1.6 kmh SW 4.0 mph6.4 kmh 29.39 in995.3 mb 0.13 in3.3 mm 0.00 in0.0 mm 0.17 in4.3 mm
03:28 AM 43.0°F6.1°C 41.9°F5.5°C 96% 2.0 mph WSW3.2 kmh WSW 10.0 mph16.1 kmh 29.35 in993.9 mb 0.05 in1.3 mm 0.00 in0.0 mm 0.21 in5.3 mm
04:28 AM 42.1°F5.6°C 40.6°F4.8°C 95% 2.0 mph WSW3.2 kmh WSW 6.0 mph9.7 kmh 29.32 in992.9 mb 0.00 in0.0 mm 0.00 in0.0 mm 0.21 in5.3 mm
05:28 AM 40.1°F4.5°C 37.9°F3.3°C 92% 5.0 mph WSW8.0 kmh WSW 13.0 mph20.9 kmh 29.33 in993.2 mb 0.02 in0.5 mm 0.00 in0.0 mm 0.23 in5.8 mm
06:28 AM 38.5°F3.6°C 36.3°F2.4°C 92% 3.0 mph SW4.8 kmh SW 9.0 mph14.5 kmh 29.36 in994.2 mb 0.00 in0.0 mm 0.00 in0.0 mm 0.23 in5.8 mm
07:28 AM 37.0°F2.8°C 35.2°F1.8°C 93% 4.0 mph SW6.4 kmh SW 11.0 mph17.7 kmh 29.39 in995.3 mb 0.03 in0.8 mm 0.00 in0.0 mm 0.26 in6.6 mm
08:28 AM 37.6°F3.1°C 35.6°F2.0°C 93% 4.0 mph SW6.4 kmh SW 10.0 mph16.1 kmh 29.42 in996.3 mb 0.02 in0.5 mm 0.00 in0.0 mm 0.28 in7.1 mm
09:28 AM 37.6°F3.1°C 35.4°F1.9°C 92% 3.0 mph SW4.8 kmh SW 9.0 mph14.5 kmh 29.45 in997.3 mb 0.03 in0.8 mm 0.00 in0.0 mm 0.31 in7.9 mm
10:28 AM 38.1°F3.4°C 36.0°F2.2°C 92% 4.0 mph SW6.4 kmh SW 11.0 mph17.7 kmh 29.50 in999.0 mb 0.01 in0.3 mm 0.00 in0.0 mm 0.31 in7.9 mm
11:28 AM 38.8°F3.8°C 37.0°F2.8°C 93% 3.0 mph SW4.8 kmh SW 7.0 mph11.3 kmh 29.54 in1000.3 mb 0.01 in0.3 mm 0.00 in0.0 mm 0.32 in8.1 mm
12:28 PM 41.9°F5.5°C 39.4°F4.1°C 91% 2.0 mph SW3.2 kmh SW 6.0 mph9.7 kmh 29.56 in1001.0 mb 0.02 in0.5 mm 0.00 in0.0 mm 0.34 in8.6 mm
01:28 PM 44.6°F7.0°C 41.0°F5.0°C 87% 3.0 mph SW4.8 kmh SW 6.0 mph9.7 kmh 29.58 in1001.7 mb 0.00 in0.0 mm 0.00 in0.0 mm 0.34 in8.6 mm
02:29 PM 43.5°F6.4°C 39.9°F4.4°C 87% 2.0 mph SW3.2 kmh SW 5.0 mph8.0 kmh 29.61 in1002.7 mb 0.00 in0.0 mm 0.00 in0.0 mm 0.34 in8.6 mm
03:28 PM 43.2°F6.2°C 40.1°F4.5°C 89% 1.0 mph SW1.6 kmh SW 5.0 mph8.0 kmh 29.63 in1003.4 mb 0.00 in0.0 mm 0.00 in0.0 mm 0.34 in8.6 mm
04:28 PM 44.4°F6.9°C 38.7°F3.7°C 80% 2.0 mph SW3.2 kmh SW 6.0 mph9.7 kmh 29.65 in1004.1 mb 0.01 in0.3 mm 0.00 in0.0 mm 0.35 in8.9 mm
05:28 PM 42.8°F6.0°C 37.8°F3.2°C 82% 2.0 mph SW3.2 kmh SW 6.0 mph9.7 kmh 29.65 in1004.1 mb 0.00 in0.0 mm 0.00 in0.0 mm 0.35 in8.9 mm
06:28 PM 41.9°F5.5°C 37.4°F3.0°C 84% 2.0 mph SW3.2 kmh SW 6.0 mph9.7 kmh 29.67 in1004.7 mb 0.00 in0.0 mm 0.00 in0.0 mm 0.35 in8.9 mm
07:28 PM 40.6°F4.8°C 37.0°F2.8°C 87% 1.0 mph WSW1.6 kmh WSW 5.0 mph8.0 kmh 29.67 in1004.7 mb 0.00 in0.0 mm 0.00 in0.0 mm 0.35 in8.9 mm
08:28 PM 39.9°F4.4°C 36.5°F2.5°C 87% 1.0 mph WSW1.6 kmh WSW 4.0 mph6.4 kmh 29.67 in1004.7 mb 0.00 in0.0 mm 0.00 in0.0 mm 0.35 in8.9 mm
09:28 PM 40.5°F4.7°C 37.2°F2.9°C 88% 1.0 mph SSE1.6 kmh SSE 5.0 mph8.0 kmh 29.67 in1004.7 mb 0.00 in0.0 mm 0.00 in0.0 mm 0.35 in8.9 mm
10:28 PM 41.4°F5.2°C 38.5°F3.6°C 89% Calm Calm 3.0 mph4.8 kmh 29.66 in1004.4 mb 0.00 in0.0 mm 0.00 in0.0 mm 0.35 in8.9 mm
11:28 PM 41.5°F5.3°C 38.8°F3.8°C 90% 1.0 mph S1.6 kmh S 9.0 mph14.5 kmh 29.64 in1003.7 mb 0.00 in0.0 mm 0.00 in0.0 mm 0.35 in8.9 mm